Portada
METAR-TAF:

METAR-TAF

Aeroports :

Aeroport Internacional de Pequín

Pequín, Xina

latitud: 39-56N, longitud: 116-17E, altitud: 55 m

Observació

L'informe es va fer fa 23 minuts, a les 08:00 UTC
Vent 8 kt del Sud, variant entre Sud/Sud-Est i Sud-Oest
Temperatura 18°C
Humitat 32%
Pressió 1014 hPa
Visibilitat 10 km o més
sense núvols per sota de 1500 mi sense presència de cumulonimbus.

METAR: ZBAA 300800Z 19004MPS 160V230 CAVOK 18/01 Q1014 NOSIG

Hora: 16:23 (08:23 UTC)

Pronòstic

L'informe es va fer fa 5 hores i 21 minuts, a les 03:02 UTC
Pronòstic vàlid del 30 a les 06 UTC al 31 a les 06 UTC
Vent 8 kt del Sud
Visibilitat 10 km o més
sense núvols per sota de 1500 mi sense presència de cumulonimbus.

TAF: ZBAA 300302Z 3006/3106 18004MPS CAVOK TX18/3007Z TN02/3021Z

Observacions i pronòstics meteorològics de més de 4000 aeroports (METAR i TAF).

Les estacions disponibles són els punts grocs i vermells al mapa.

Posi el ratolí al punt desitjat per veure el nom de l'estació.

Feu clic per veure les observacions i els pronòstics meteorològics.

Per canviar el mapa: feu clic els botons verds amb una creu de color negre per apropar; al botó verd amb un guió per allunyar la imatge; o en les fletxes verdes per a mapes adjacents.


METAR-TAF: